createdAt,value
2022-08-14T00:01:32.289Z,3.00
2022-08-14T00:03:59.621Z,3.40
2022-08-14T00:06:29.192Z,3.40
2022-08-14T00:08:59.343Z,2.97
2022-08-14T00:11:31.943Z,2.73
2022-08-14T00:14:02.882Z,3.07
2022-08-14T00:16:41.236Z,2.87
2022-08-14T00:19:21.410Z,3.17
2022-08-14T00:21:50.897Z,3.30
2022-08-14T00:24:28.198Z,2.80
2022-08-14T00:27:02.297Z,2.80
2022-08-14T00:29:40.596Z,3.00
2022-08-14T00:32:51.726Z,2.80
2022-08-14T00:35:01.274Z,3.23
2022-08-14T00:37:29.310Z,2.90
2022-08-14T00:40:00.066Z,3.47
2022-08-14T00:42:55.258Z,3.37
2022-08-14T00:45:16.255Z,3.73
2022-08-14T00:47:45.351Z,3.50
2022-08-14T00:50:17.878Z,3.40
2022-08-14T00:52:52.320Z,3.40
2022-08-14T00:55:20.497Z,3.60
2022-08-14T00:58:11.013Z,3.27
2022-08-14T01:00:47.418Z,3.30
2022-08-14T01:03:20.261Z,3.27
2022-08-14T01:05:51.586Z,3.20
2022-08-14T01:08:51.236Z,3.27
2022-08-14T01:11:19.272Z,2.80
2022-08-14T01:13:50.855Z,3.40
2022-08-14T01:16:30.686Z,2.77
2022-08-14T01:19:19.791Z,2.80
2022-08-14T01:21:53.002Z,3.10
2022-08-14T01:24:24.834Z,2.80
2022-08-14T01:27:00.376Z,3.00
2022-08-14T01:29:58.076Z,2.53
2022-08-14T01:32:22.971Z,2.60
2022-08-14T01:35:18.129Z,2.60
2022-08-14T01:37:44.579Z,2.70
2022-08-14T01:40:17.249Z,3.10
2022-08-14T01:42:47.149Z,2.83
2022-08-14T01:45:17.927Z,3.17
2022-08-14T01:47:52.391Z,2.80
2022-08-14T01:50:30.884Z,3.20
2022-08-14T01:53:01.227Z,3.57
2022-08-14T01:55:32.393Z,3.00
2022-08-14T01:58:18.055Z,3.00
2022-08-14T02:00:47.861Z,2.57
2022-08-14T02:03:16.077Z,2.90
2022-08-14T02:05:43.644Z,3.10
2022-08-14T02:08:10.733Z,3.40
2022-08-14T02:10:46.280Z,3.27
2022-08-14T02:13:14.063Z,3.17
2022-08-14T02:15:44.010Z,3.20
2022-08-14T02:18:15.094Z,3.30
2022-08-14T02:20:42.558Z,3.20
2022-08-14T02:23:09.441Z,3.70
2022-08-14T02:25:39.425Z,3.50
2022-08-14T02:28:23.805Z,3.20
2022-08-14T02:30:53.269Z,3.30
2022-08-14T02:33:22.550Z,3.33
2022-08-14T02:35:53.325Z,3.10
2022-08-14T02:38:34.898Z,3.33
2022-08-14T02:41:02.070Z,3.00
2022-08-14T02:43:37.244Z,3.20
2022-08-14T02:46:20.430Z,3.00
2022-08-14T02:49:04.410Z,3.10
2022-08-14T02:51:34.509Z,3.50
2022-08-14T02:54:01.919Z,3.03
2022-08-14T02:57:15.562Z,3.43
2022-08-14T02:59:17.700Z,3.30
2022-08-14T03:01:51.238Z,3.70
2022-08-14T03:04:22.385Z,3.57
2022-08-14T03:06:58.289Z,3.40
2022-08-14T03:09:41.861Z,3.73
2022-08-14T03:12:30.939Z,3.33
2022-08-14T03:14:59.097Z,3.73
2022-08-14T03:17:26.961Z,3.53
2022-08-14T03:19:58.902Z,3.63
2022-08-14T03:22:27.724Z,3.40
2022-08-14T03:24:56.738Z,3.70
2022-08-14T03:27:26.398Z,4.00
2022-08-14T03:29:54.317Z,3.73
2022-08-14T03:32:21.484Z,3.80
2022-08-14T03:34:58.607Z,4.00
2022-08-14T03:37:38.258Z,3.83
2022-08-14T03:40:18.518Z,4.07
2022-08-14T03:42:45.639Z,4.80
2022-08-14T03:45:25.706Z,4.03
2022-08-14T03:48:02.240Z,4.50
2022-08-14T03:50:31.339Z,4.10
2022-08-14T03:53:02.834Z,4.47
2022-08-14T03:55:30.738Z,4.33
2022-08-14T03:58:00.492Z,4.30
2022-08-14T04:00:43.426Z,4.20
2022-08-14T04:03:11.864Z,3.87
2022-08-14T04:05:48.588Z,4.03
2022-08-14T04:08:29.810Z,3.87
2022-08-14T04:10:59.517Z,3.97
2022-08-14T04:13:34.450Z,3.90
2022-08-14T04:16:04.914Z,3.50
2022-08-14T04:18:33.948Z,4.17
2022-08-14T04:21:01.338Z,3.73
2022-08-14T04:23:29.385Z,3.83
2022-08-14T04:26:01.176Z,3.93
2022-08-14T04:29:07.151Z,4.27
2022-08-14T04:31:15.524Z,4.00
2022-08-14T04:33:42.629Z,3.43
2022-08-14T04:36:16.049Z,3.60
2022-08-14T04:39:02.992Z,4.10
2022-08-14T04:41:48.359Z,3.63
2022-08-14T04:44:36.026Z,3.37
2022-08-14T04:47:22.724Z,4.10
2022-08-14T04:49:57.044Z,3.77
2022-08-14T04:52:25.067Z,3.80
2022-08-14T04:54:52.419Z,3.73
2022-08-14T04:57:21.882Z,4.00
2022-08-14T04:59:49.778Z,3.77
2022-08-14T05:02:18.151Z,3.90
2022-08-14T05:04:45.496Z,3.77
2022-08-14T05:07:46.532Z,3.37
2022-08-14T05:10:16.332Z,3.57
2022-08-14T05:13:12.998Z,3.47
2022-08-14T05:15:36.469Z,3.70
2022-08-14T05:18:17.667Z,3.50
2022-08-14T05:21:54.284Z,3.60
2022-08-14T05:23:48.573Z,3.80
2022-08-14T05:26:17.261Z,3.60
2022-08-14T05:28:46.100Z,3.50
2022-08-14T05:31:14.545Z,3.60
2022-08-14T05:33:56.621Z,4.20
2022-08-14T05:36:27.049Z,3.77
2022-08-14T05:38:54.245Z,4.10
2022-08-14T05:41:22.486Z,4.00
2022-08-14T05:43:51.098Z,4.00
2022-08-14T05:46:22.766Z,4.47
2022-08-14T05:48:55.253Z,3.97
2022-08-14T05:51:25.844Z,3.90
2022-08-14T05:54:01.595Z,4.03
2022-08-14T05:56:39.967Z,4.00
2022-08-14T05:59:07.238Z,4.40
2022-08-14T06:01:34.791Z,4.00
2022-08-14T06:04:04.622Z,4.13
2022-08-14T06:06:38.546Z,3.77
2022-08-14T06:09:10.027Z,4.20
2022-08-14T06:11:37.389Z,3.73
2022-08-14T06:14:04.518Z,4.03
2022-08-14T06:16:39.328Z,4.00
2022-08-14T06:19:07.450Z,3.53
2022-08-14T06:21:40.518Z,3.47
2022-08-14T06:24:10.402Z,3.43
2022-08-14T06:26:52.162Z,3.87
2022-08-14T06:29:24.053Z,4.00
2022-08-14T06:32:00.164Z,3.77
2022-08-14T06:35:11.553Z,4.47
2022-08-14T06:37:16.882Z,4.07
2022-08-14T06:39:44.412Z,4.27
2022-08-14T06:42:31.282Z,3.90
2022-08-14T06:45:02.795Z,3.90
2022-08-14T06:47:30.082Z,3.67
2022-08-14T06:49:58.250Z,3.70
2022-08-14T06:52:25.366Z,3.55
2022-08-14T06:54:52.358Z,3.87
2022-08-14T06:57:19.481Z,4.05
2022-08-14T06:59:48.463Z,4.38
2022-08-14T07:02:36.091Z,4.20
2022-08-14T07:05:23.593Z,3.97
2022-08-14T07:07:51.118Z,4.10
2022-08-14T07:10:18.042Z,3.70
2022-08-14T07:13:01.899Z,3.85
2022-08-14T07:15:33.847Z,3.83
2022-08-14T07:18:02.062Z,3.90
2022-08-14T07:20:31.670Z,3.90
2022-08-14T07:23:09.127Z,4.10
2022-08-14T07:25:39.890Z,3.90
2022-08-14T07:28:12.870Z,3.75
2022-08-14T07:30:51.534Z,4.35
2022-08-14T07:33:24.585Z,3.50
2022-08-14T07:35:58.931Z,3.53
2022-08-14T07:38:34.006Z,3.95
2022-08-14T07:41:03.599Z,3.88
2022-08-14T07:43:42.737Z,3.75
2022-08-14T07:46:10.962Z,3.88
2022-08-14T07:48:40.817Z,4.20
2022-08-14T07:51:10.907Z,4.40
2022-08-14T07:53:40.795Z,4.20
2022-08-14T07:56:43.674Z,3.65
2022-08-14T07:58:58.561Z,4.10
2022-08-14T08:01:26.404Z,3.65
2022-08-14T08:03:59.383Z,3.80
2022-08-14T08:06:27.581Z,4.32
2022-08-14T08:09:00.961Z,4.80
2022-08-14T08:11:35.062Z,4.90
2022-08-14T08:14:16.314Z,4.65
2022-08-14T08:16:45.774Z,4.80
2022-08-14T08:19:14.112Z,5.03
2022-08-14T08:21:43.870Z,3.83
2022-08-14T08:24:12.498Z,4.38
2022-08-14T08:26:47.164Z,4.25
2022-08-14T08:29:28.209Z,4.43
2022-08-14T08:31:56.693Z,3.72
2022-08-14T08:34:29.370Z,4.15
2022-08-14T08:37:00.096Z,4.32
2022-08-14T08:39:42.175Z,4.10
2022-08-14T08:42:31.461Z,4.13
2022-08-14T08:45:11.827Z,4.47
2022-08-14T08:47:42.870Z,4.00
2022-08-14T08:50:31.379Z,4.13
2022-08-14T08:53:03.189Z,3.88
2022-08-14T08:55:35.608Z,3.97
2022-08-14T08:58:08.887Z,4.00
2022-08-14T09:00:47.290Z,4.05
2022-08-14T09:03:20.764Z,4.20
2022-08-14T09:05:53.959Z,3.80
2022-08-14T09:08:30.408Z,3.88
2022-08-14T09:11:01.007Z,4.00
2022-08-14T09:13:28.066Z,4.13
2022-08-14T09:15:58.068Z,3.85
2022-08-14T09:18:27.213Z,4.32
2022-08-14T09:20:58.906Z,3.53
2022-08-14T09:23:27.508Z,4.05
2022-08-14T09:26:05.153Z,3.28
2022-08-14T09:28:48.330Z,3.83
2022-08-14T09:31:18.148Z,3.30
2022-08-14T09:34:27.114Z,3.35
2022-08-14T09:37:16.185Z,3.50
2022-08-14T09:39:53.782Z,3.15
2022-08-14T09:42:50.221Z,3.28
2022-08-14T09:45:40.314Z,3.10
2022-08-14T09:48:29.988Z,2.50
2022-08-14T09:54:17.725Z,2.60
2022-08-14T09:56:42.547Z,3.17
2022-08-14T09:59:16.002Z,2.42
2022-08-14T10:01:46.294Z,2.83
2022-08-14T10:04:34.840Z,2.90
2022-08-14T10:07:05.930Z,2.83
2022-08-14T10:09:34.785Z,3.00
2022-08-14T10:12:04.613Z,2.35
2022-08-14T10:14:36.694Z,2.65
2022-08-14T10:17:06.437Z,2.85
2022-08-14T10:19:36.485Z,2.03
2022-08-14T10:23:13.738Z,2.33
2022-08-14T10:25:00.616Z,2.35
2022-08-14T10:27:28.437Z,2.13
2022-08-14T10:30:01.086Z,2.75
2022-08-14T10:32:40.104Z,2.40
2022-08-14T10:35:13.609Z,2.70
2022-08-14T10:37:51.342Z,2.85
2022-08-14T10:40:43.378Z,2.30
2022-08-14T10:43:23.306Z,2.85
2022-08-14T10:47:35.884Z,2.70
2022-08-14T10:49:04.493Z,2.30
2022-08-14T10:51:36.360Z,2.60
2022-08-14T10:54:35.296Z,2.63
2022-08-14T10:56:56.003Z,2.70
2022-08-14T10:59:34.983Z,2.78
2022-08-14T11:02:04.277Z,3.17
2022-08-14T11:04:32.138Z,2.85
2022-08-14T11:07:00.365Z,3.30
2022-08-14T11:09:32.020Z,2.97
2022-08-14T11:12:33.103Z,3.35
2022-08-14T11:15:02.563Z,2.70
2022-08-14T11:17:34.135Z,2.88
2022-08-14T11:20:03.067Z,2.97
2022-08-14T11:22:55.745Z,2.63
2022-08-14T11:25:21.366Z,3.30
2022-08-14T11:27:49.420Z,3.42
2022-08-14T11:30:50.710Z,2.92
2022-08-14T11:33:07.687Z,3.05
2022-08-14T11:35:47.180Z,3.30
2022-08-14T11:38:17.119Z,3.03
2022-08-14T11:40:46.836Z,3.50
2022-08-14T11:43:15.589Z,2.70
2022-08-14T11:45:48.778Z,2.45
2022-08-14T11:49:01.843Z,2.58
2022-08-14T11:51:23.673Z,2.83
2022-08-14T11:53:56.881Z,2.80
2022-08-14T11:56:25.723Z,2.78
2022-08-14T11:58:57.209Z,2.95
2022-08-14T12:01:28.678Z,2.80
2022-08-14T12:04:07.736Z,2.67
2022-08-14T12:06:44.990Z,2.80
2022-08-14T12:09:46.317Z,2.85
2022-08-14T12:12:34.945Z,2.83
2022-08-14T12:15:04.472Z,2.47
2022-08-14T12:17:47.737Z,2.80
2022-08-14T12:20:30.096Z,2.67
2022-08-14T12:23:00.913Z,2.28
2022-08-14T12:25:28.550Z,2.75
2022-08-14T12:27:59.465Z,2.90
2022-08-14T12:30:39.382Z,2.90
2022-08-14T12:33:31.280Z,3.00
2022-08-14T12:36:04.508Z,2.38
2022-08-14T12:38:38.604Z,2.78
2022-08-14T12:41:11.254Z,2.70
2022-08-14T12:43:56.557Z,2.78
2022-08-14T12:46:39.727Z,2.70
2022-08-14T12:49:12.037Z,2.70
2022-08-14T12:51:44.376Z,2.80
2022-08-14T12:54:26.914Z,2.53
2022-08-14T12:57:04.621Z,2.78
2022-08-14T12:59:37.161Z,2.83
2022-08-14T13:02:26.246Z,2.63
2022-08-14T13:04:56.502Z,3.03
2022-08-14T13:07:24.142Z,2.70
2022-08-14T13:09:58.482Z,3.05
2022-08-14T13:12:32.308Z,3.00
2022-08-14T13:15:12.156Z,2.83
2022-08-14T13:17:45.497Z,2.90
2022-08-14T13:20:24.182Z,3.20
2022-08-14T13:22:55.016Z,3.10
2022-08-14T13:25:25.822Z,3.30
2022-08-14T13:28:00.676Z,3.15
2022-08-14T13:30:27.802Z,3.25
2022-08-14T13:32:57.946Z,2.90
2022-08-14T13:35:25.816Z,3.35
2022-08-14T13:37:54.006Z,2.78
2022-08-14T13:40:26.235Z,2.88
2022-08-14T13:42:57.115Z,2.97
2022-08-14T13:45:33.702Z,3.33
2022-08-14T13:48:27.298Z,3.00
2022-08-14T13:51:01.716Z,3.20
2022-08-14T13:53:33.431Z,2.95
2022-08-14T13:56:00.512Z,2.70
2022-08-14T13:58:30.281Z,3.08
2022-08-14T14:01:01.656Z,2.90
2022-08-14T14:03:30.178Z,3.10
2022-08-14T14:05:59.077Z,3.22
2022-08-14T14:08:45.863Z,3.17
2022-08-14T14:11:16.111Z,2.75
2022-08-14T14:13:45.504Z,3.60
2022-08-14T14:16:14.805Z,3.13
2022-08-14T14:18:49.055Z,2.95
2022-08-14T14:21:21.506Z,3.03
2022-08-14T14:23:48.954Z,2.72
2022-08-14T14:26:23.095Z,3.05
2022-08-14T14:28:56.617Z,2.90
2022-08-14T14:31:30.263Z,2.80
2022-08-14T14:34:12.528Z,2.97
2022-08-14T14:36:50.162Z,2.70
2022-08-14T14:39:25.517Z,2.90
2022-08-14T14:41:56.310Z,2.70
2022-08-14T14:44:25.829Z,2.97
2022-08-14T14:46:54.061Z,3.20
2022-08-14T14:49:25.856Z,2.88
2022-08-14T14:51:58.983Z,2.88
2022-08-14T14:54:31.126Z,2.65
2022-08-14T14:57:02.410Z,3.13
2022-08-14T14:59:35.902Z,3.22
2022-08-14T15:02:06.397Z,3.10
2022-08-14T15:04:37.897Z,2.90
2022-08-14T15:07:06.305Z,3.10
2022-08-14T15:09:36.138Z,2.53
2022-08-14T15:12:05.496Z,2.55
2022-08-14T15:14:55.668Z,2.78
2022-08-14T15:17:28.382Z,2.83
2022-08-14T15:20:05.470Z,2.63
2022-08-14T15:22:34.858Z,2.95
2022-08-14T15:25:01.722Z,2.92
2022-08-14T15:27:29.709Z,2.80
2022-08-14T15:29:56.580Z,2.88
2022-08-14T15:32:23.609Z,2.85
2022-08-14T15:34:52.512Z,2.97
2022-08-14T15:37:22.703Z,2.90
2022-08-14T15:39:52.720Z,2.85
2022-08-14T15:42:23.192Z,3.00
2022-08-14T15:44:58.217Z,3.10
2022-08-14T15:47:31.132Z,2.55
2022-08-14T15:50:03.798Z,2.97
2022-08-14T15:52:35.617Z,2.85
2022-08-14T15:55:10.514Z,3.20
2022-08-14T15:57:40.278Z,3.20
2022-08-14T16:00:49.671Z,3.00
2022-08-14T16:03:27.434Z,2.90
2022-08-14T16:06:15.294Z,3.28
2022-08-14T16:08:57.662Z,2.80
2022-08-14T16:11:32.627Z,2.90
2022-08-14T16:13:59.992Z,2.80
2022-08-14T16:16:49.205Z,3.10
2022-08-14T16:19:18.674Z,2.67
2022-08-14T16:22:02.059Z,2.80
2022-08-14T16:25:00.372Z,2.65
2022-08-14T16:27:39.061Z,3.03
2022-08-14T16:30:24.612Z,2.95
2022-08-14T16:32:55.299Z,3.10
2022-08-14T16:38:19.665Z,3.10
2022-08-14T16:40:25.408Z,3.13
2022-08-14T16:41:22.895Z,3.22
2022-08-14T16:44:01.363Z,3.25
2022-08-14T16:46:32.644Z,3.10
2022-08-14T16:49:00.944Z,2.80
2022-08-14T16:51:34.812Z,3.53
2022-08-14T16:54:33.722Z,3.25
2022-08-14T16:56:53.664Z,3.70
2022-08-14T16:59:30.595Z,3.25
2022-08-14T17:02:11.250Z,3.47
2022-08-14T17:04:41.045Z,3.38
2022-08-14T17:07:13.344Z,3.28
2022-08-14T17:09:43.408Z,3.63
2022-08-14T17:12:34.952Z,3.03
2022-08-14T17:15:15.379Z,3.40
2022-08-14T17:17:54.474Z,3.22
2022-08-14T17:20:53.972Z,3.10
2022-08-14T17:23:13.682Z,3.30
2022-08-14T17:25:50.834Z,3.35
2022-08-14T17:28:51.446Z,3.00
2022-08-14T17:31:12.235Z,3.47
2022-08-14T17:33:44.628Z,3.60
2022-08-14T17:36:22.465Z,3.22
2022-08-14T17:39:20.356Z,3.33
2022-08-14T17:42:03.285Z,3.33
2022-08-14T17:44:45.586Z,3.65
2022-08-14T17:47:14.720Z,3.33
2022-08-14T17:49:47.423Z,3.65
2022-08-14T17:52:34.643Z,3.45
2022-08-14T17:55:06.537Z,3.55
2022-08-14T17:57:35.291Z,3.53
2022-08-14T18:00:16.514Z,3.75
2022-08-14T18:02:50.390Z,3.53
2022-08-14T18:05:22.934Z,3.30
2022-08-14T18:08:31.424Z,3.60
2022-08-14T18:10:55.194Z,3.70
2022-08-14T18:13:51.769Z,3.70
2022-08-14T18:16:20.277Z,3.30
2022-08-14T18:18:51.387Z,3.50
2022-08-14T18:21:40.316Z,3.30
2022-08-14T18:24:28.488Z,3.10
2022-08-14T18:27:01.729Z,3.45
2022-08-14T18:29:31.628Z,3.23
2022-08-14T18:31:59.393Z,3.50
2022-08-14T18:34:48.534Z,2.93
2022-08-14T18:37:21.362Z,3.30
2022-08-14T18:40:02.307Z,3.30
2022-08-14T18:42:35.015Z,3.07
2022-08-14T18:45:12.342Z,3.37
2022-08-14T18:50:31.363Z,3.57
2022-08-14T18:53:11.005Z,3.50
2022-08-14T18:55:53.016Z,3.50
2022-08-14T18:58:48.993Z,3.40
2022-08-14T19:01:27.232Z,2.87
2022-08-14T19:03:57.460Z,3.17
2022-08-14T19:06:43.141Z,3.57
2022-08-14T19:09:50.715Z,3.47
2022-08-14T19:12:52.941Z,3.20
2022-08-14T19:15:25.725Z,3.87
2022-08-14T19:18:10.978Z,3.70
2022-08-14T19:20:52.633Z,3.50
2022-08-14T19:23:41.992Z,3.47
2022-08-14T19:26:36.476Z,3.37
2022-08-14T19:29:38.000Z,3.10
2022-08-14T19:32:36.389Z,3.17
2022-08-14T19:35:14.910Z,3.40
2022-08-14T19:37:52.589Z,3.20
2022-08-14T19:40:35.301Z,3.57
2022-08-14T19:43:06.365Z,3.50
2022-08-14T19:45:34.159Z,3.10
2022-08-14T19:48:02.632Z,3.40
2022-08-14T19:50:40.583Z,3.40
2022-08-14T19:53:16.586Z,3.27
2022-08-14T19:55:56.685Z,3.10
2022-08-14T19:58:28.097Z,3.40
2022-08-14T20:00:59.242Z,3.23
2022-08-14T20:03:26.230Z,3.30
2022-08-14T20:06:13.111Z,3.30
2022-08-14T20:09:06.092Z,3.23
2022-08-14T20:12:04.475Z,3.40
2022-08-14T20:14:36.132Z,2.60
2022-08-14T20:17:06.767Z,3.50
2022-08-14T20:19:37.671Z,3.20
2022-08-14T20:22:35.749Z,3.40
2022-08-14T20:25:10.956Z,2.97
2022-08-14T20:27:44.005Z,3.10
2022-08-14T20:30:35.347Z,3.23
2022-08-14T20:33:07.520Z,3.17
2022-08-14T20:35:49.447Z,3.20
2022-08-14T20:38:31.532Z,3.20
2022-08-14T20:41:10.613Z,3.30
2022-08-14T20:43:59.811Z,3.37
2022-08-14T20:46:38.832Z,2.87
2022-08-14T20:49:07.348Z,3.07
2022-08-14T20:51:54.566Z,3.47
2022-08-14T20:54:36.357Z,3.17
2022-08-14T20:57:14.076Z,3.20
2022-08-14T20:59:43.926Z,2.70
2022-08-14T21:02:29.713Z,2.70
2022-08-14T21:05:03.485Z,2.80
2022-08-14T21:07:36.324Z,2.90
2022-08-14T21:10:33.367Z,3.07
2022-08-14T21:13:27.960Z,3.03
2022-08-14T21:15:58.071Z,2.90
2022-08-14T21:18:29.462Z,2.50
2022-08-14T21:20:58.180Z,2.73
2022-08-14T21:23:27.303Z,2.70
2022-08-14T21:25:59.856Z,2.80
2022-08-14T21:28:30.649Z,2.60
2022-08-14T21:31:01.808Z,2.60
2022-08-14T21:33:29.094Z,3.00
2022-08-14T21:35:57.786Z,2.57
2022-08-14T21:38:31.124Z,2.70
2022-08-14T21:41:35.282Z,2.80
2022-08-14T21:44:04.152Z,2.90
2022-08-14T21:46:51.168Z,3.20
2022-08-14T21:49:38.423Z,3.07
2022-08-14T21:52:49.641Z,2.50
2022-08-14T21:55:09.229Z,2.77
2022-08-14T21:58:45.726Z,2.97
2022-08-14T22:00:35.945Z,2.63
2022-08-14T22:03:09.984Z,3.17
2022-08-14T22:05:41.748Z,2.63
2022-08-14T22:08:13.938Z,2.60
2022-08-14T22:10:46.311Z,2.70
2022-08-14T22:13:16.752Z,2.63
2022-08-14T22:15:50.150Z,3.07
2022-08-14T22:18:20.259Z,2.80
2022-08-14T22:20:53.889Z,2.57
2022-08-14T22:23:21.405Z,2.77
2022-08-14T22:25:50.456Z,2.97
2022-08-14T22:28:23.026Z,2.77
2022-08-14T22:30:54.997Z,2.53
2022-08-14T22:33:26.670Z,3.20
2022-08-14T22:35:59.076Z,2.67
2022-08-14T22:38:35.310Z,2.93
2022-08-14T22:41:26.949Z,2.50
2022-08-14T22:43:54.954Z,2.50
2022-08-14T22:46:22.138Z,2.60
2022-08-14T22:48:51.090Z,2.43
2022-08-14T22:51:21.031Z,2.80
2022-08-14T22:53:51.699Z,2.20
2022-08-14T22:56:22.064Z,2.40
2022-08-14T22:58:54.250Z,2.27
2022-08-14T23:01:56.921Z,2.40
2022-08-14T23:04:35.096Z,2.70
2022-08-14T23:07:22.323Z,2.57
2022-08-14T23:10:32.472Z,2.37
2022-08-14T23:12:49.037Z,2.53
2022-08-14T23:15:23.378Z,2.00
2022-08-14T23:17:50.230Z,2.43
2022-08-14T23:20:20.873Z,2.07
2022-08-14T23:22:53.293Z,2.37
2022-08-14T23:25:56.922Z,2.30
2022-08-14T23:28:34.846Z,2.10
2022-08-14T23:31:01.403Z,2.37
2022-08-14T23:33:28.189Z,2.27
2022-08-14T23:35:59.734Z,2.10
2022-08-14T23:38:30.752Z,2.30
2022-08-14T23:41:00.794Z,2.00
2022-08-14T23:43:31.058Z,2.20
2022-08-14T23:45:58.298Z,2.27
2022-08-14T23:48:28.147Z,2.03
2022-08-14T23:50:55.772Z,1.90
2022-08-14T23:53:27.915Z,2.67
2022-08-14T23:55:57.582Z,2.10
2022-08-14T23:58:29.951Z,1.90
